Time;durP1;ratioP1;P1;durP2;ratioP2;P2;SDS_P1;SDS_P2;PMS_P1;PMS_P2;Temp;Humidity;BMP_temperature;BMP_pressure;BME280_temperature;BME280_humidity;BME280_pressure;Samples;Min_cycle;Max_cycle;Signal;HPM_P1;HPM_P2
2022/01/28 00:02:32;;;;;;;22.17;10.07;;;;;;;4.34;70.23;100116.91;4461860;32;32955;-62
2022/01/28 00:05:00;;;;;;;21.75;11.48;;;;;;;4.21;70.81;100114.19;4462883;32;34602;-62
2022/01/28 00:07:27;;;;;;;21.67;11.00;;;;;;;4.01;71.68;100128.97;4469180;32;34231;-62
2022/01/28 00:09:55;;;;;;;22.37;10.70;;;;;;;4.19;71.39;100138.81;4470131;32;33355;-62
2022/01/28 00:12:24;;;;;;;21.67;10.35;;;;;;;3.93;71.93;100145.44;4467488;32;34005;-62
2022/01/28 00:15:05;;;;;;;23.67;10.48;;;;;;;4.62;69.85;100139.47;4470733;32;33502;-62
2022/01/28 00:37:14;;;;;;;24.60;12.20;;;;;;;3.86;71.25;100125.25;4458072;32;33943;-62
2022/01/28 00:39:42;;;;;;;22.65;10.77;;;;;;;3.49;73.67;100142.91;4463677;32;33545;-62
2022/01/28 00:42:09;;;;;;;23.00;11.38;;;;;;;3.47;74.16;100136.75;4471115;32;33689;-62
2022/01/28 00:44:37;;;;;;;27.35;12.52;;;;;;;3.03;76.04;100141.81;4469318;32;33888;-62
2022/01/28 00:47:05;;;;;;;24.37;12.05;;;;;;;3.29;75.79;100149.91;4470366;32;33742;-62
2022/01/28 00:49:32;;;;;;;27.75;12.37;;;;;;;3.38;74.99;100144.63;4463699;32;34091;-61
2022/01/28 00:52:00;;;;;;;26.10;12.50;;;;;;;3.51;75.24;100152.47;4471025;32;33558;-61
2022/01/28 00:54:27;;;;;;;28.27;12.30;;;;;;;3.77;74.32;100127.09;4462520;32;33667;-61
2022/01/28 00:56:55;;;;;;;26.08;13.40;;;;;;;3.54;74.43;100124.56;4470369;32;34664;-61
2022/01/28 00:59:22;;;;;;;25.52;12.25;;;;;;;3.72;74.40;100114.81;4468841;32;34095;-62
2022/01/28 01:01:50;;;;;;;29.08;12.52;;;;;;;3.17;75.86;100117.31;4469265;32;33711;-62
2022/01/28 01:04:18;;;;;;;22.02;11.25;;;;;;;3.32;75.74;100119.44;4469702;32;33815;-61
2022/01/28 01:06:45;;;;;;;24.35;11.48;;;;;;;3.64;74.46;100123.59;4447977;32;34727;-61
2022/01/28 01:09:13;;;;;;;25.67;12.05;;;;;;;3.68;74.38;100112.81;4461026;32;34745;-62
2022/01/28 01:11:41;;;;;;;24.33;11.73;;;;;;;3.48;74.97;100106.16;4447113;32;34162;-62
2022/01/28 01:14:09;;;;;;;25.65;10.75;;;;;;;3.30;75.23;100117.50;4451069;32;33191;-62
2022/01/28 01:16:56;;;;;;;25.98;11.82;;;;;;;3.27;75.46;100113.06;4468045;32;33903;-62
2022/01/28 01:19:27;;;;;;;23.67;11.63;;;;;;;3.25;75.41;100112.03;4461162;32;34838;-62
2022/01/28 01:21:58;;;;;;;25.67;12.43;;;;;;;3.47;74.39;100108.59;4470309;32;34522;-62
2022/01/28 01:24:28;;;;;;;22.55;10.68;;;;;;;3.16;75.69;100108.75;4467761;32;34621;-61
2022/01/28 01:26:59;;;;;;;22.40;10.93;;;;;;;3.33;75.80;100090.50;4449941;32;33212;-61
2022/01/28 01:29:27;;;;;;;25.60;11.65;;;;;;;3.24;75.69;100100.00;4466372;32;34694;-62
2022/01/28 01:32:02;;;;;;;26.10;11.68;;;;;;;3.13;76.20;100100.84;4457089;32;32468;-61
2022/01/28 01:34:29;;;;;;;23.50;10.57;;;;;;;3.04;76.64;100100.12;4470511;32;34503;-62
2022/01/28 01:36:57;;;;;;;27.70;11.85;;;;;;;3.09;76.46;100099.72;4468180;32;33634;-61
2022/01/28 01:39:28;;;;;;;25.17;11.80;;;;;;;3.19;76.11;100091.09;4464373;32;34170;-62
2022/01/28 01:42:06;;;;;;;22.98;11.10;;;;;;;3.21;75.99;100099.78;4469552;32;33448;-62
2022/01/28 01:52:57;;;;;;;22.00;10.23;;;;;;;3.17;76.59;100077.28;4468746;32;33705;-62
2022/01/28 01:55:24;;;;;;;20.55;10.02;;;;;;;3.36;75.51;100079.56;4465521;32;33771;-62
2022/01/28 01:57:53;;;;;;;25.37;10.13;;;;;;;3.43;75.43;100079.28;4469645;32;34507;-62
2022/01/28 02:00:20;;;;;;;23.67;9.63;;;;;;;3.22;75.37;100086.19;4463167;32;34213;-62
2022/01/28 02:02:49;;;;;;;19.98;9.77;;;;;;;3.32;75.45;100081.03;4474802;26;33883;-90
2022/01/28 02:05:45;;;;;;;22.50;9.90;;;;;;;3.32;75.20;100092.91;4440345;26;33390;-66
2022/01/28 02:08:12;;;;;;;21.02;10.18;;;;;;;3.32;75.42;100088.72;4431705;32;31208;-65
2022/01/28 02:10:40;;;;;;;23.10;9.90;;;;;;;3.27;75.48;100084.00;4454074;32;34797;-66
2022/01/28 02:13:07;;;;;;;22.05;10.05;;;;;;;3.42;75.02;100079.16;4453362;32;34397;-65
2022/01/28 02:15:35;;;;;;;23.10;9.55;;;;;;;3.52;74.75;100084.25;4439336;32;33391;-65
2022/01/28 02:18:02;;;;;;;17.95;9.20;;;;;;;3.59;74.68;100078.78;4453485;32;34730;-64
2022/01/28 02:20:42;;;;;;;18.45;9.93;;;;;;;3.42;74.81;100074.03;4454074;32;34109;-66
2022/01/28 02:23:11;;;;;;;17.25;8.50;;;;;;;3.23;75.29;100085.44;4453749;32;34342;-64
2022/01/28 02:25:38;;;;;;;20.55;9.32;;;;;;;3.51;74.15;100080.75;4450155;32;34040;-66
2022/01/28 02:28:09;;;;;;;18.60;8.18;;;;;;;3.80;73.44;100064.16;4453375;32;33933;-65
2022/01/28 02:30:36;;;;;;;19.60;8.73;;;;;;;3.45;74.24;100084.53;4447240;32;33402;-66
2022/01/28 02:33:17;;;;;;;17.08;8.35;;;;;;;3.47;74.17;100093.22;4454470;32;33699;-65
2022/01/28 02:35:46;;;;;;;15.43;7.40;;;;;;;3.63;73.43;100085.97;4453671;32;33784;-67
2022/01/28 02:38:16;;;;;;;13.10;6.80;;;;;;;3.55;73.99;100099.81;4448557;32;33809;-65
2022/01/28 02:40:49;;;;;;;14.57;7.68;;;;;;;3.54;73.78;100090.38;4453712;32;34086;-67
2022/01/28 02:45:50;;;;;;;17.75;7.72;;;;;;;3.38;74.56;100087.38;4454507;32;34567;-64
2022/01/28 02:48:25;;;;;;;18.80;8.27;;;;;;;3.99;72.42;100086.97;4450343;32;34514;-65
2022/01/28 02:53:42;;;;;;;17.20;8.38;;;;;;;3.90;72.14;100091.37;4442338;32;34531;-64
2022/01/28 02:56:17;;;;;;;13.43;6.45;;;;;;;3.63;72.75;100096.22;4439133;32;34356;-64
2022/01/28 02:58:45;;;;;;;14.68;7.18;;;;;;;4.43;70.35;100084.25;4452661;32;33995;-64
2022/01/28 03:01:15;;;;;;;11.70;5.35;;;;;;;4.04;71.40;100084.75;4450389;32;33695;-66
2022/01/28 03:03:44;;;;;;;11.95;5.95;;;;;;;4.10;71.57;100090.34;4447296;32;33670;-66
2022/01/28 03:06:13;;;;;;;12.18;6.30;;;;;;;3.65;72.81;100104.91;4452812;32;34670;-66
2022/01/28 03:08:45;;;;;;;12.43;6.15;;;;;;;3.93;72.30;100101.87;4452522;32;33720;-64
2022/01/28 03:17:06;;;;;;;11.65;4.50;;;;;;;4.11;71.56;100093.03;4453835;32;34416;-65
2022/01/28 03:19:47;;;;;;;9.40;3.80;;;;;;;4.46;70.01;100087.03;4434911;32;34408;-65
2022/01/28 03:22:15;;;;;;;7.18;3.37;;;;;;;4.08;71.21;100095.34;4440430;32;34844;-65
2022/01/28 03:24:46;;;;;;;8.75;3.97;;;;;;;4.19;70.94;100114.09;4446606;32;33658;-64
2022/01/28 03:27:24;;;;;;;7.45;3.75;;;;;;;4.27;70.55;100104.44;4445519;32;34601;-63
2022/01/28 03:29:51;;;;;;;7.32;2.90;;;;;;;4.24;70.62;100109.31;4453237;32;34665;-65
2022/01/28 03:32:19;;;;;;;7.03;3.20;;;;;;;4.30;70.63;100110.66;4453036;32;34075;-64
2022/01/28 03:34:46;;;;;;;8.35;3.50;;;;;;;4.22;70.67;100110.88;4451525;32;34358;-64
2022/01/28 03:37:15;;;;;;;7.07;3.75;;;;;;;4.20;70.90;100107.31;4451126;32;34515;-66
2022/01/28 03:39:43;;;;;;;6.68;3.30;;;;;;;4.30;70.80;100102.94;4442969;32;33852;-66
2022/01/28 03:42:10;;;;;;;7.10;3.55;;;;;;;4.39;70.64;100107.88;4453726;32;34148;-64
2022/01/28 03:44:38;;;;;;;7.37;3.25;;;;;;;4.28;70.71;100106.19;4453998;32;34351;-64
2022/01/28 03:47:05;;;;;;;7.50;3.60;;;;;;;4.08;71.15;100108.16;4448955;32;33511;-64
2022/01/28 03:49:33;;;;;;;6.75;3.25;;;;;;;4.46;69.86;100112.69;4453234;32;33928;-64
2022/01/28 03:52:00;;;;;;;6.57;3.10;;;;;;;4.42;70.17;100115.78;4453789;32;34027;-64
2022/01/28 03:54:28;;;;;;;6.93;3.10;;;;;;;4.44;69.77;100118.47;4451758;32;33554;-63
2022/01/28 03:56:56;;;;;;;5.45;3.00;;;;;;;4.23;70.52;100128.03;4444158;32;33966;-66
2022/01/28 03:59:24;;;;;;;6.50;3.35;;;;;;;4.37;69.89;100121.38;4443534;32;32883;-64
2022/01/28 04:01:51;;;;;;;5.18;2.67;;;;;;;4.36;70.08;100142.66;4452474;32;34821;-64
2022/01/28 04:12:28;;;;;;;8.52;2.95;;;;;;;4.59;68.72;100121.28;4452839;32;34259;-64
2022/01/28 04:17:42;;;;;;;4.47;2.22;;;;;;;4.64;68.07;100143.94;4453019;32;34455;-64
2022/01/28 04:20:10;;;;;;;3.60;2.00;;;;;;;4.75;67.27;100131.87;4453542;32;33774;-65
2022/01/28 04:22:37;;;;;;;4.70;2.42;;;;;;;4.96;65.92;100131.66;4453088;32;35125;-64
2022/01/28 04:25:05;;;;;;;6.87;2.67;;;;;;;4.91;66.16;100129.66;4452561;32;33670;-64
2022/01/28 04:27:33;;;;;;;4.95;2.40;;;;;;;4.80;66.11;100111.69;4448468;32;33892;-64
2022/01/28 04:30:00;;;;;;;6.60;3.08;;;;;;;4.86;65.93;100117.28;4451470;32;34030;-64
2022/01/28 04:32:29;;;;;;;7.97;2.42;;;;;;;4.39;66.91;100115.56;4450060;32;33919;-64
2022/01/28 04:34:59;;;;;;;5.75;2.12;;;;;;;4.40;66.82;100104.53;4450053;32;33675;-64
2022/01/28 04:37:47;;;;;;;5.65;2.60;;;;;;;4.82;65.37;100108.44;4442315;32;34360;-64
2022/01/28 04:40:21;;;;;;;4.62;2.28;;;;;;;4.47;66.32;100114.47;4452931;32;33841;-64
2022/01/28 04:43:06;;;;;;;7.10;2.15;;;;;;;4.58;65.85;100106.66;4448287;32;34037;-64
2022/01/28 04:45:51;;;;;;;5.60;2.40;;;;;;;4.64;65.52;100087.50;4448875;32;33190;-64
2022/01/28 04:48:28;;;;;;;4.72;2.22;;;;;;;4.76;65.33;100108.00;4451945;32;33631;-64
2022/01/28 05:01:40;;;;;;;5.28;1.95;;;;;;;4.27;67.92;100124.94;4450476;32;33667;-63
2022/01/28 05:04:34;;;;;;;4.82;2.35;;;;;;;4.32;67.74;100121.03;4455423;32;34222;-65
2022/01/28 05:07:28;;;;;;;3.78;1.70;;;;;;;4.21;67.52;100127.94;4455321;32;34467;-64
2022/01/28 05:13:07;;;;;;;9.13;3.03;;;;;;;4.13;67.87;100137.62;4454423;32;33972;-65
2022/01/28 05:26:34;;;;;;;6.00;2.40;;;;;;;3.99;68.48;100137.34;4454196;32;32917;-67
2022/01/28 05:29:02;;;;;;;5.07;2.00;;;;;;;3.90;68.14;100128.19;4454217;32;33568;-64
2022/01/28 05:31:30;;;;;;;4.95;2.35;;;;;;;3.91;67.98;100121.38;4451394;32;34500;-66
2022/01/28 05:34:00;;;;;;;3.85;1.60;;;;;;;3.62;68.41;100125.16;4453645;32;34593;-66
2022/01/28 05:36:28;;;;;;;5.55;2.03;;;;;;;4.01;66.96;100121.28;4455002;32;34197;-65
2022/01/28 05:38:55;;;;;;;3.87;1.48;;;;;;;3.81;67.36;100124.03;4453737;32;33659;-65
2022/01/28 05:41:23;;;;;;;3.92;1.65;;;;;;;3.73;67.82;100108.06;4454660;32;34214;-67
2022/01/28 05:43:50;;;;;;;3.37;1.45;;;;;;;3.97;67.36;100103.88;4448245;32;34669;-66
2022/01/28 05:46:18;;;;;;;3.58;1.50;;;;;;;4.04;66.87;100103.59;4453658;32;32616;-64
2022/01/28 05:48:46;;;;;;;3.03;1.15;;;;;;;3.88;67.37;100103.19;4453445;32;33634;-66
2022/01/28 05:51:13;;;;;;;3.80;1.50;;;;;;;4.36;65.99;100110.22;4454878;32;33869;-65
2022/01/28 05:53:41;;;;;;;4.25;1.85;;;;;;;4.07;66.52;100114.03;4454370;32;33900;-64
2022/01/28 05:56:09;;;;;;;2.90;1.77;;;;;;;4.12;66.53;100117.88;4452917;32;33939;-65
2022/01/28 05:58:36;;;;;;;5.07;1.40;;;;;;;4.08;66.72;100113.28;4452851;32;34201;-64
2022/01/28 06:01:04;;;;;;;4.87;1.17;;;;;;;4.37;66.27;100118.81;4451764;32;33886;-66
2022/01/28 06:03:32;;;;;;;3.20;1.23;;;;;;;4.31;66.28;100126.94;4454125;32;34553;-65
2022/01/28 06:05:59;;;;;;;3.65;1.90;;;;;;;4.75;64.88;100133.56;4454432;32;34120;-64
2022/01/28 06:08:27;;;;;;;4.87;1.55;;;;;;;4.72;64.88;100136.81;4453029;32;33474;-65
2022/01/28 06:10:54;;;;;;;3.78;1.60;;;;;;;4.71;64.94;100151.31;4450942;32;34721;-65
2022/01/28 06:13:22;;;;;;;2.60;1.20;;;;;;;4.79;64.73;100146.75;4451989;32;34567;-65
2022/01/28 06:15:55;;;;;;;2.85;1.12;;;;;;;4.80;64.80;100151.06;4454870;32;34050;-67
2022/01/28 06:18:23;;;;;;;6.47;1.58;;;;;;;4.69;65.24;100157.09;4453503;32;32733;-66
2022/01/28 06:20:51;;;;;;;3.78;1.83;;;;;;;5.01;64.12;100166.28;4435723;32;33425;-65
2022/01/28 06:23:18;;;;;;;4.00;1.60;;;;;;;4.87;64.36;100162.69;4452879;32;33624;-66
2022/01/28 06:25:47;;;;;;;3.35;1.45;;;;;;;4.80;64.51;100171.59;4447393;32;34805;-64
2022/01/28 06:28:14;;;;;;;3.90;1.83;;;;;;;4.49;65.69;100179.59;4451646;32;33466;-65
2022/01/28 06:30:42;;;;;;;4.50;1.92;;;;;;;4.61;65.06;100168.47;4449554;32;33817;-65
2022/01/28 06:33:14;;;;;;;3.35;1.50;;;;;;;4.47;65.45;100173.47;4452987;32;33270;-66
2022/01/28 06:35:42;;;;;;;3.50;1.77;;;;;;;4.42;65.21;100169.66;4440426;32;35000;-67
2022/01/28 06:38:11;;;;;;;4.28;1.62;;;;;;;4.17;65.84;100178.84;4451995;32;34190;-63
2022/01/28 06:40:39;;;;;;;3.97;1.65;;;;;;;4.22;65.66;100187.78;4449748;32;34002;-64
2022/01/28 06:43:15;;;;;;;2.92;1.40;;;;;;;4.49;64.48;100179.59;4452498;32;33648;-65
2022/01/28 06:45:43;;;;;;;2.47;1.02;;;;;;;4.42;64.49;100169.66;4436458;32;32534;-67
2022/01/28 06:48:11;;;;;;;2.33;1.15;;;;;;;4.51;63.86;100170.34;4454320;32;33478;-65
2022/01/28 06:50:42;;;;;;;2.42;1.20;;;;;;;4.48;63.82;100175.25;4453572;32;33888;-63
2022/01/28 06:53:14;;;;;;;3.05;1.25;;;;;;;4.98;62.25;100181.44;4454034;32;33958;-66
2022/01/28 06:55:42;;;;;;;4.32;1.33;;;;;;;4.57;63.03;100192.13;4454188;32;34024;-66
2022/01/28 06:58:09;;;;;;;2.92;1.08;;;;;;;4.70;62.29;100203.41;4434693;32;33753;-64
2022/01/28 07:00:38;;;;;;;2.33;0.90;;;;;;;5.09;60.96;100216.50;4444596;32;34101;-68
2022/01/28 07:03:06;;;;;;;4.05;1.42;;;;;;;5.19;60.56;100224.06;4444051;32;33716;-64
2022/01/28 07:05:34;;;;;;;3.20;1.70;;;;;;;5.01;60.61;100238.16;4445647;32;34016;-67
2022/01/28 07:08:02;;;;;;;2.80;1.70;;;;;;;5.15;60.76;100229.78;4444364;32;34272;-64
2022/01/28 07:10:30;;;;;;;4.32;1.35;;;;;;;4.95;61.85;100232.56;4450816;32;34369;-66
2022/01/28 07:12:58;;;;;;;4.32;1.20;;;;;;;4.76;62.30;100231.19;4442048;32;34658;-65
2022/01/28 07:15:27;;;;;;;2.25;0.95;;;;;;;4.92;61.89;100239.28;4443658;32;33668;-67
2022/01/28 07:18:01;;;;;;;4.78;1.45;;;;;;;5.17;61.25;100246.19;4439098;32;33432;-64
2022/01/28 07:20:33;;;;;;;3.45;0.93;;;;;;;4.83;62.18;100253.97;4452184;32;34518;-63
2022/01/28 07:23:02;;;;;;;4.68;1.10;;;;;;;4.86;62.49;100232.78;4450680;32;34670;-64
2022/01/28 07:25:30;;;;;;;2.58;1.12;;;;;;;4.80;61.92;100228.06;4453611;32;34094;-64
2022/01/28 07:27:58;;;;;;;2.25;0.70;;;;;;;4.80;62.51;100217.81;4453483;32;33580;-66
2022/01/28 07:30:26;;;;;;;2.15;0.90;;;;;;;5.15;60.46;100213.47;4437516;32;33330;-64
2022/01/28 07:32:54;;;;;;;5.18;1.00;;;;;;;4.79;61.04;100205.78;4452303;32;33620;-65
2022/01/28 07:35:21;;;;;;;2.03;0.70;;;;;;;5.37;58.98;100213.34;4451754;32;34827;-64
2022/01/28 07:37:49;;;;;;;3.40;0.70;;;;;;;5.05;58.09;100217.94;4451487;32;33227;-64
2022/01/28 07:40:17;;;;;;;2.28;0.88;;;;;;;5.30;57.96;100223.19;4439128;32;32625;-64
2022/01/28 07:42:45;;;;;;;5.25;1.20;;;;;;;5.18;58.26;100237.72;4453532;32;33993;-64
2022/01/28 07:45:16;;;;;;;2.58;0.90;;;;;;;5.04;58.99;100248.62;4451633;32;34739;-65
2022/01/28 07:47:44;;;;;;;4.40;0.80;;;;;;;5.16;58.06;100244.41;4451378;32;34473;-65
2022/01/28 07:50:12;;;;;;;3.87;1.00;;;;;;;5.58;56.98;100245.75;4446776;32;33805;-67
2022/01/28 07:52:40;;;;;;;1.83;0.95;;;;;;;5.48;56.68;100258.69;4444014;32;34647;-66
2022/01/28 07:55:13;;;;;;;1.52;0.65;;;;;;;5.30;56.82;100259.16;4444076;32;34889;-64
2022/01/28 07:57:42;;;;;;;3.37;0.88;;;;;;;5.54;55.46;100254.00;4441484;32;33641;-65
2022/01/28 08:00:11;;;;;;;2.95;1.00;;;;;;;5.72;55.04;100255.31;4447541;32;33613;-64
2022/01/28 08:02:39;;;;;;;4.00;0.88;;;;;;;5.26;55.39;100252.00;4449857;32;33763;-66
2022/01/28 08:05:07;;;;;;;3.00;0.88;;;;;;;5.45;55.45;100243.97;4445615;32;34668;-68
2022/01/28 08:07:34;;;;;;;2.50;0.70;;;;;;;5.59;55.32;100242.38;4443202;32;33631;-67
2022/01/28 08:10:02;;;;;;;1.60;0.60;;;;;;;5.52;55.22;100237.56;4447410;32;33595;-66
2022/01/28 08:12:30;;;;;;;3.62;0.70;;;;;;;5.70;54.88;100250.87;4441663;32;33929;-67
2022/01/28 08:14:57;;;;;;;2.83;0.60;;;;;;;5.82;54.14;100237.97;4445354;32;34151;-66
2022/01/28 08:17:25;;;;;;;2.83;1.08;;;;;;;5.63;54.59;100259.78;4443480;32;33624;-68
2022/01/28 08:19:52;;;;;;;2.00;1.05;;;;;;;5.53;53.98;100241.06;4446828;32;33687;-68
2022/01/28 08:22:20;;;;;;;2.85;0.60;;;;;;;5.55;53.97;100266.06;4443738;32;34770;-65
2022/01/28 08:24:48;;;;;;;1.85;0.40;;;;;;;5.81;53.46;100267.91;4452666;32;34553;-65
2022/01/28 08:27:15;;;;;;;2.60;0.50;;;;;;;5.81;52.31;100259.31;4450748;32;33708;-64
2022/01/28 08:29:43;;;;;;;13.90;1.27;;;;;;;5.90;51.92;100270.25;4449222;32;33843;-64
2022/01/28 08:32:13;;;;;;;2.95;0.40;;;;;;;5.61;51.67;100247.63;4447691;32;35390;-64
2022/01/28 08:34:41;;;;;;;2.37;0.70;;;;;;;5.83;50.58;100253.53;4448317;32;34013;-66
2022/01/28 08:37:09;;;;;;;3.65;0.60;;;;;;;6.06;50.54;100255.16;4455373;32;34367;-63
2022/01/28 08:39:36;;;;;;;2.72;0.65;;;;;;;6.13;50.28;100263.31;4447032;32;34555;-65
2022/01/28 08:42:04;;;;;;;2.00;0.50;;;;;;;5.99;50.67;100260.66;4451450;32;34373;-66
2022/01/28 08:44:31;;;;;;;8.05;0.95;;;;;;;6.28;50.79;100259.22;4443470;32;34897;-66
2022/01/28 08:46:59;;;;;;;4.03;0.80;;;;;;;6.65;49.44;100272.03;4446440;32;33357;-63
2022/01/28 08:49:27;;;;;;;4.25;0.50;;;;;;;5.92;50.18;100263.56;4453720;32;34580;-63
2022/01/28 08:51:54;;;;;;;3.08;0.62;;;;;;;6.29;48.97;100271.28;4452701;32;33946;-65
2022/01/28 08:54:22;;;;;;;0.68;0.30;;;;;;;6.30;48.55;100242.22;4450280;32;34178;-63
2022/01/28 08:56:49;;;;;;;1.87;0.30;;;;;;;6.18;48.92;100261.94;4454231;32;34471;-65
2022/01/28 08:59:36;;;;;;;1.50;0.20;;;;;;;5.88;49.67;100257.28;4436024;32;32850;-64
2022/01/28 09:02:04;;;;;;;0.95;0.50;;;;;;;6.08;48.92;100257.81;4437166;32;31739;-67
2022/01/28 09:04:31;;;;;;;1.62;0.47;;;;;;;6.02;49.64;100260.84;4434596;32;34321;-67
2022/01/28 09:06:59;;;;;;;3.00;0.80;;;;;;;6.06;49.94;100252.56;4455033;32;33646;-67
2022/01/28 09:09:28;;;;;;;3.28;0.65;;;;;;;5.97;50.69;100257.09;4451742;32;34618;-63
2022/01/28 09:14:26;;;;;;;1.12;0.30;;;;;;;5.88;51.60;100240.97;4454856;32;34981;-64
2022/01/28 09:16:54;;;;;;;0.90;0.40;;;;;;;6.12;51.47;100271.78;4455309;32;33335;-68
2022/01/28 09:19:22;;;;;;;2.22;0.50;;;;;;;5.88;52.17;100276.97;4440901;32;34418;-67
2022/01/28 09:21:51;;;;;;;2.25;0.60;;;;;;;5.88;52.46;100258.97;4454642;32;33630;-66
2022/01/28 09:24:18;;;;;;;1.92;0.37;;;;;;;5.69;52.88;100272.19;4454636;32;34243;-65
2022/01/28 09:26:46;;;;;;;2.05;0.62;;;;;;;6.02;52.00;100271.16;4454533;32;33500;-64
2022/01/28 09:29:13;;;;;;;1.67;0.50;;;;;;;6.23;52.28;100291.44;4454570;32;33875;-64
2022/01/28 09:31:41;;;;;;;0.75;0.40;;;;;;;6.48;50.89;100284.63;4438698;32;33828;-66
2022/01/28 09:34:08;;;;;;;7.47;0.80;;;;;;;6.32;51.18;100276.66;4450235;32;34822;-66
2022/01/28 09:36:38;;;;;;;0.93;0.50;;;;;;;6.17;50.70;100281.63;4455393;32;34481;-64
2022/01/28 09:39:07;;;;;;;2.25;0.70;;;;;;;6.33;50.29;100273.28;4451843;32;34494;-65
2022/01/28 09:41:35;;;;;;;2.95;0.45;;;;;;;5.99;51.13;100300.91;4441329;32;33921;-67
2022/01/28 09:44:03;;;;;;;1.35;0.40;;;;;;;5.81;51.72;100274.75;4452624;32;34214;-65
2022/01/28 09:46:33;;;;;;;1.15;0.50;;;;;;;6.01;50.84;100286.50;4432778;32;33659;-64
2022/01/28 09:49:01;;;;;;;1.42;0.50;;;;;;;6.17;50.45;100281.63;4416372;32;33890;-64
2022/01/28 09:51:28;;;;;;;2.42;0.57;;;;;;;6.01;50.82;100287.38;4437224;32;33910;-66
2022/01/28 09:53:56;;;;;;;2.72;0.50;;;;;;;6.17;49.40;100286.78;4444280;32;34045;-65
2022/01/28 09:56:23;;;;;;;2.55;0.65;;;;;;;5.99;48.78;100286.38;4448597;32;33675;-65
2022/01/28 09:58:51;;;;;;;0.68;0.35;;;;;;;6.27;48.79;100294.34;4452468;32;33860;-65
2022/01/28 10:01:18;;;;;;;2.53;0.40;;;;;;;6.42;48.39;100273.03;4448766;32;33940;-65
2022/01/28 10:03:59;;;;;;;0.50;0.30;;;;;;;6.29;48.71;100307.31;4453260;32;33718;-64
2022/01/28 10:06:30;;;;;;;1.85;0.32;;;;;;;6.40;47.80;100296.09;4450482;32;34416;-65
2022/01/28 10:09:01;;;;;;;4.22;0.50;;;;;;;6.77;47.34;100303.75;4440130;32;33840;-64
2022/01/28 10:11:29;;;;;;;4.03;0.50;;;;;;;6.41;46.91;100291.81;4452869;32;33305;-64
2022/01/28 10:14:07;;;;;;;2.05;0.43;;;;;;;6.42;46.14;100279.06;4444939;32;33715;-64
2022/01/28 10:16:35;;;;;;;4.50;0.60;;;;;;;6.61;45.89;100275.19;4444388;32;33632;-65
2022/01/28 10:19:07;;;;;;;1.98;0.30;;;;;;;6.52;46.10;100274.56;4444306;32;33794;-66
2022/01/28 10:21:38;;;;;;;4.78;0.40;;;;;;;6.89;45.67;100289.16;4448301;32;33796;-66
2022/01/28 10:24:11;;;;;;;4.78;0.80;;;;;;;7.10;45.42;100273.31;4443689;32;34112;-66
2022/01/28 10:27:10;;;;;;;1.25;0.32;;;;;;;7.21;44.65;100256.88;4449169;32;34508;-65
2022/01/28 10:29:40;;;;;;;2.67;0.60;;;;;;;7.13;44.73;100252.91;4450835;32;34703;-65
2022/01/28 10:32:12;;;;;;;2.22;0.50;;;;;;;6.87;44.91;100264.06;4444046;32;32934;-65
2022/01/28 10:34:43;;;;;;;1.48;0.45;;;;;;;6.86;44.67;100241.69;4449713;32;34953;-66
2022/01/28 10:37:25;;;;;;;1.70;0.47;;;;;;;6.87;44.28;100233.16;4452064;32;33394;-66
2022/01/28 10:39:59;;;;;;;1.48;0.57;;;;;;;6.89;44.07;100235.06;4437556;32;34614;-65
2022/01/28 10:42:49;;;;;;;2.33;0.50;;;;;;;6.81;44.41;100251.66;4439438;32;34003;-64
2022/01/28 10:45:21;;;;;;;2.65;0.70;;;;;;;6.80;44.34;100252.47;4434201;32;34051;-64
2022/01/28 10:47:53;;;;;;;2.15;0.50;;;;;;;7.02;43.92;100207.53;4448508;32;34171;-65
2022/01/28 10:50:26;;;;;;;1.17;0.50;;;;;;;7.27;43.92;100238.34;4449662;32;34557;-65
2022/01/28 10:53:00;;;;;;;1.50;0.37;;;;;;;7.39;44.03;100236.56;4451607;32;33834;-65
2022/01/28 10:55:29;;;;;;;2.70;0.90;;;;;;;7.45;44.07;100230.91;4447377;32;33921;-64
2022/01/28 10:58:07;;;;;;;2.85;0.60;;;;;;;7.33;44.46;100250.75;4450331;32;34244;-64
2022/01/28 11:00:38;;;;;;;0.65;0.30;;;;;;;7.33;45.22;100232.72;4439775;32;33925;-65
2022/01/28 11:03:08;;;;;;;2.35;0.60;;;;;;;7.28;45.22;100259.06;4453411;32;34805;-67
2022/01/28 11:05:37;;;;;;;1.55;0.45;;;;;;;7.43;45.15;100268.59;4453056;32;36056;-67
2022/01/28 11:08:08;;;;;;;1.08;0.43;;;;;;;7.48;45.73;100262.06;4450793;32;33696;-66
2022/01/28 11:10:38;;;;;;;2.35;0.60;;;;;;;7.47;45.84;100244.78;4437082;32;34103;-67
2022/01/28 11:13:05;;;;;;;1.33;0.40;;;;;;;7.68;45.79;100277.09;4451074;32;33781;-67
2022/01/28 11:15:34;;;;;;;1.73;0.50;;;;;;;7.17;46.53;100259.19;4449319;32;33711;-66
2022/01/28 11:18:04;;;;;;;1.90;1.02;;;;;;;6.74;48.14;100276.91;4449648;32;33584;-64
2022/01/28 11:20:52;;;;;;;1.52;0.47;;;;;;;6.72;48.88;100294.81;4448664;32;34712;-67
2022/01/28 11:23:31;;;;;;;1.50;0.50;;;;;;;6.81;48.77;100300.59;4453949;32;33959;-65
2022/01/28 11:26:23;;;;;;;1.87;0.40;;;;;;;7.09;48.10;100307.63;4443096;32;34185;-65
2022/01/28 11:28:54;;;;;;;4.12;0.60;;;;;;;6.98;48.21;100318.87;4436671;32;33460;-65
2022/01/28 11:31:40;;;;;;;3.15;0.75;;;;;;;6.61;49.19;100321.53;4445210;32;33255;-65
2022/01/28 11:34:34;;;;;;;2.83;0.60;;;;;;;6.64;47.78;100314.00;4441211;32;34281;-66
2022/01/28 11:37:02;;;;;;;0.95;0.47;;;;;;;6.18;49.13;100305.66;4427606;32;34204;-66
2022/01/28 11:39:38;;;;;;;1.60;0.50;;;;;;;6.44;48.34;100305.81;4443362;32;33551;-66
2022/01/28 11:42:15;;;;;;;4.40;0.60;;;;;;;6.46;47.93;100306.81;4424641;32;33504;-66
2022/01/28 11:44:50;;;;;;;2.60;0.60;;;;;;;6.48;48.39;100330.06;4452254;32;34783;-66
2022/01/28 11:47:45;;;;;;;1.52;0.47;;;;;;;6.79;47.71;100317.63;4453957;32;35030;-66
2022/01/28 11:50:17;;;;;;;3.62;0.60;;;;;;;6.77;48.43;100313.16;4437261;32;33218;-66
2022/01/28 11:52:48;;;;;;;2.65;0.43;;;;;;;6.61;48.93;100306.09;4445600;32;33766;-65
2022/01/28 11:55:20;;;;;;;3.12;0.55;;;;;;;6.37;49.33;100306.16;4446007;32;33775;-65
2022/01/28 11:58:02;;;;;;;2.78;0.52;;;;;;;6.47;49.47;100289.66;4451672;32;34086;-65
2022/01/28 12:00:39;;;;;;;3.33;0.50;;;;;;;6.58;49.24;100308.44;4447002;32;34263;-66
2022/01/28 12:03:21;;;;;;;2.00;0.45;;;;;;;6.21;50.25;100308.47;4440651;32;33687;-66
2022/01/28 12:06:18;;;;;;;2.92;0.50;;;;;;;6.36;49.78;100288.94;4452718;32;33705;-66
2022/01/28 12:08:46;;;;;;;3.22;0.65;;;;;;;6.41;49.83;100307.25;4436233;32;33977;-66
2022/01/28 12:11:46;;;;;;;3.65;0.55;;;;;;;6.38;49.77;100318.25;4438442;32;34269;-66
2022/01/28 12:14:18;;;;;;;6.00;0.70;;;;;;;6.24;49.86;100289.00;4439262;32;33440;-66
2022/01/28 12:16:47;;;;;;;2.90;1.02;;;;;;;6.23;50.19;100306.88;4439998;32;33923;-67
2022/01/28 12:19:19;;;;;;;1.85;0.40;;;;;;;6.15;50.50;100303.78;4426517;32;34064;-67
2022/01/28 12:22:04;;;;;;;5.15;0.85;;;;;;;6.52;49.39;100326.03;4439098;32;34397;-68
2022/01/28 12:24:37;;;;;;;1.90;0.40;;;;;;;6.15;50.42;100320.91;4420993;32;33436;-65
2022/01/28 12:27:07;;;;;;;11.93;0.95;;;;;;;5.95;50.75;100315.25;4438801;32;33817;-66
2022/01/28 12:29:35;;;;;;;2.87;0.90;;;;;;;6.09;50.23;100322.25;4439759;32;33952;-65
2022/01/28 12:32:04;;;;;;;4.70;0.68;;;;;;;6.10;49.96;100321.47;4421605;32;31957;-64
2022/01/28 12:34:32;;;;;;;5.45;1.00;;;;;;;6.33;49.45;100339.28;4425256;32;33558;-66
2022/01/28 12:37:02;;;;;;;2.12;0.70;;;;;;;6.33;49.39;100342.75;4438218;32;34593;-66
2022/01/28 12:39:38;;;;;;;1.92;0.70;;;;;;;6.25;49.46;100328.47;4437627;32;34029;-66
2022/01/28 12:42:22;;;;;;;4.18;0.60;;;;;;;6.12;49.82;100333.53;4439691;32;33523;-65
2022/01/28 12:44:51;;;;;;;1.77;0.88;;;;;;;6.28;49.31;100341.56;4426916;32;34410;-65
2022/01/28 12:47:19;;;;;;;1.60;0.47;;;;;;;6.09;49.95;100340.25;4438812;32;33696;-65
2022/01/28 12:49:53;;;;;;;1.37;0.57;;;;;;;5.99;50.17;100336.91;4439828;32;34237;-65
2022/01/28 12:52:21;;;;;;;4.50;0.65;;;;;;;6.34;49.31;100347.12;4439516;32;33654;-65
2022/01/28 12:54:48;;;;;;;7.37;0.70;;;;;;;6.40;48.75;100346.66;4439265;32;33805;-64
2022/01/28 12:57:19;;;;;;;4.50;0.75;;;;;;;6.24;49.64;100349.84;4439402;32;33720;-65
2022/01/28 12:59:48;;;;;;;1.60;0.55;;;;;;;6.49;49.21;100355.94;4439390;32;34713;-65
2022/01/28 13:02:18;;;;;;;1.50;0.40;;;;;;;6.33;49.27;100345.31;4439278;32;34300;-64
2022/01/28 13:04:52;;;;;;;2.15;0.40;;;;;;;6.24;49.62;100330.16;4439366;32;34008;-65